Flight Track Log - Related Links

Times and Time Zones

All times are in EDT time to prevent confusion due to time zone crossing. See the EJA727 flight status page for this flight to view local times or setup timezone preferences in your user account.

Time Position Orientation Groundspeed Altitude Reporting Facility
EDT Latitude Longitude Course Direction KTS MPH feet Rate Location/Type
Thu 02:48:58 PM 34.1642 -118.4750 72° East 211 243 39,000  Level Los Angeles Center
Thu 02:50:00 PM 34.1336 -118.4150 122° Southeast 240 276 4,500 -15,290 Descending Los Angeles Center
Thu 02:51:02 PM 34.1967 -118.3833 23° Northeast 284 327 7,400 2,928 Climbing Los Angeles Center
Thu 02:52:05 PM 34.2742 -118.4203 339° North 291 335 10,600 3,120 Climbing Los Angeles Center
Thu 02:53:07 PM 34.3572 -118.4022 10° North 327 376 13,900 3,290 Climbing Los Angeles Center
Thu 02:54:00 PM 34.4351 -117.6120 72° East  Level Estimated
Thu 02:54:09 PM 34.4431 -118.3461 28° Northeast 350 403 17,400  Level Los Angeles Center
Thu 02:55:11 PM 34.5125 -118.2536 48° Northeast 375 432 20,300 2,661 Climbing Los Angeles Center
Thu 02:56:13 PM 34.5797 -118.1494 52° Northeast 390 449 22,900 1,935 Climbing Los Angeles Center
Thu 02:57:15 PM 34.6364 -117.9972 66° East 445 512 24,300 1,935 Climbing Los Angeles Center
Thu 02:58:17 PM 34.6533 -117.8486 82° East 449 517 26,900 2,565 Climbing Los Angeles Center
Thu 02:59:19 PM 34.6700 -117.7064 82° East 435 501 29,600 2,177 Climbing Los Angeles Center
Thu 03:00:21 PM 34.6844 -117.5661 83° East 426 490 31,400 1,728 Climbing Los Angeles Center
Thu 03:01:24 PM 34.7028 -117.3950 83° East 431 496 33,200 1,488 Climbing Los Angeles Center
Thu 03:02:26 PM 34.7189 -117.2492 82° East 437 503 34,500 1,258 Climbing Los Angeles Center
Thu 03:03:28 PM 34.7331 -117.1017 83° East 442 509 35,800 1,161 Climbing Los Angeles Center
Thu 03:04:30 PM 34.7475 -116.9528 83° East 445 512 36,900 968 Climbing Los Angeles Center
Thu 03:05:32 PM 34.7633 -116.8014 83° East 453 521 37,800 968 Climbing Los Angeles Center
Thu 03:06:34 PM 34.7817 -116.6192 83° East 457 526 38,900 339 Climbing Los Angeles Center
Thu 03:07:36 PM 34.7958 -116.4625 84° East 465 535 38,500 48 Descending Los Angeles Center
Thu 03:08:38 PM 34.7950 -116.3006 90° East 478 550 39,000 242 Climbing Los Angeles Center
Thu 03:09:40 PM 34.7931 -116.1361 91° East 485 558 39,000  Level Los Angeles Center
Thu 03:10:43 PM 34.7917 -115.9736 91° East 485 558 39,000  Level Los Angeles Center
Thu 03:11:45 PM 34.7903 -115.8111 91° East 483 556 39,000  Level Los Angeles Center
Thu 03:12:47 PM 34.7878 -115.6136 91° East 486 559 39,000  Level Los Angeles Center
Thu 03:13:49 PM 34.7842 -115.4417 91° East 487 560 39,000  Level Los Angeles Center
Thu 03:14:51 PM 34.7822 -115.2781 91° East 487 560 39,000  Level Los Angeles Center
Thu 03:15:53 PM 34.7797 -115.1131 91° East 489 563 39,000  Level Los Angeles Center
Thu 03:16:55 PM 34.7761 -114.9489 91° East 488 562 39,000  Level Los Angeles Center
Thu 03:17:57 PM 34.7731 -114.7858 91° East 484 557 39,000  Level Los Angeles Center
Thu 03:19:00 PM 34.7683 -114.5911 92° East 482 555 39,000  Level Los Angeles Center
Thu 03:20:02 PM 34.7650 -114.4294 91° East 479 551 39,000  Level Los Angeles Center
Thu 03:21:04 PM 34.7606 -114.2658 92° East 483 556 39,000  Level Los Angeles Center
Thu 03:22:06 PM 34.7567 -114.1019 92° East 486 559 39,000  Level Los Angeles Center
Thu 03:23:08 PM 34.7525 -113.9411 92° East 484 557 39,000  Level Los Angeles Center
Thu 03:24:10 PM 34.7472 -113.7781 92° East 486 559 39,000  Level Los Angeles Center
Thu 03:24:28 PM 34.7464 -113.7119 91° East 485 558 39,000  Level Albuquerque Center
Thu 03:25:30 PM 34.7422 -113.5503 92° East 485 558 39,000  Level Albuquerque Center
Thu 03:26:32 PM 34.7367 -113.3881 92° East 485 558 39,000  Level Albuquerque Center
Thu 03:27:34 PM 34.7286 -113.1928 93° East 487 560 39,000  Level Albuquerque Center
Thu 03:28:36 PM 34.7228 -113.0358 93° East 486 559 39,000  Level Albuquerque Center
Thu 03:29:37 PM 34.7172 -112.8703 92° East 483 556 39,000  Level Albuquerque Center
Thu 03:30:39 PM 34.7111 -112.7086 93° East 484 557 39,000  Level Albuquerque Center
Thu 03:31:41 PM 34.7061 -112.5467 92° East 484 557 39,000  Level Albuquerque Center
Thu 03:32:43 PM 34.7317 -112.3533 81° East 492 566 39,000  Level Albuquerque Center
Thu 03:33:44 PM 34.7678 -112.1967 74° East 488 562 39,000  Level Albuquerque Center
Thu 03:34:46 PM 34.8036 -112.0378 75° East 490 564 39,000  Level Albuquerque Center
Thu 03:35:48 PM 34.8400 -111.8808 74° East 489 563 39,000  Level Albuquerque Center
Thu 03:36:50 PM 34.8778 -111.7119 75° East 487 560 39,000  Level Albuquerque Center
Thu 03:37:52 PM 34.9203 -111.5556 72° East 486 559 39,000  Level Albuquerque Center
Thu 03:38:53 PM 34.9631 -111.3986 72° East 488 562 39,000  Level Albuquerque Center
Thu 03:39:55 PM 35.0044 -111.2431 72° East 485 558 39,000  Level Albuquerque Center
Thu 03:40:57 PM 35.0542 -111.0542 72° East 486 559 39,000  Level Albuquerque Center
Thu 03:41:59 PM 35.0956 -110.8933 72° East 484 557 39,000  Level Albuquerque Center
Thu 03:43:01 PM 35.1353 -110.7444 72° East 483 556 39,000  Level Albuquerque Center
Thu 03:44:03 PM 35.1811 -110.5692 72° East 484 557 39,000  Level Albuquerque Center
Thu 03:45:05 PM 35.2200 -110.4175 73° East 487 560 39,000  Level Albuquerque Center
Thu 03:46:06 PM 35.2581 -110.2658 73° East 488 562 39,000  Level Albuquerque Center
Thu 03:47:08 PM 35.3047 -110.0897 72° East 488 562 39,000  Level Albuquerque Center
Thu 03:48:10 PM 35.3431 -109.9378 73° East 488 562 39,000  Level Albuquerque Center
Thu 03:49:12 PM 35.3883 -109.7600 73° East 489 563 39,000  Level Albuquerque Center
Thu 03:50:14 PM 35.4272 -109.6061 73° East 492 566 39,000  Level Albuquerque Center
Thu 03:51:16 PM 35.4711 -109.4264 73° East 493 567 39,000  Level Albuquerque Center
Thu 03:52:18 PM 35.5097 -109.2725 73° East 494 568 39,000  Level Albuquerque Center
Thu 03:53:20 PM 35.5542 -109.0917 73° East 496 571 39,000  Level Albuquerque Center
Thu 03:54:22 PM 35.5922 -108.9372 73° East 497 572 39,000  Level Albuquerque Center
Thu 03:55:24 PM 35.6361 -108.7572 73° East 497 572 39,000  Level Albuquerque Center
Thu 03:56:26 PM 35.6742 -108.6017 73° East 499 574 39,000  Level Albuquerque Center
Thu 03:57:28 PM 35.7178 -108.4200 73° East 499 574 39,000  Level Albuquerque Center
Thu 03:58:30 PM 35.7544 -108.2633 74° East 500 575 39,000  Level Albuquerque Center
Thu 03:59:32 PM 35.7975 -108.0819 74° East 498 573 39,000  Level Albuquerque Center
Thu 04:00:33 PM 35.8344 -107.9264 74° East 496 571 39,000  Level Albuquerque Center
Thu 04:01:35 PM 35.8753 -107.7436 75° East 496 571 39,000  Level Albuquerque Center
Thu 04:02:37 PM 35.9128 -107.5856 74° East 500 575 39,000  Level Albuquerque Center
Thu 04:03:39 PM 35.9547 -107.4019 74° East 500 575 39,000  Level Albuquerque Center
Thu 04:04:41 PM 35.9908 -107.2425 74° East 502 578 39,000  Level Albuquerque Center
Thu 04:05:43 PM 36.0256 -107.0931 74° East 500 575 39,000  Level Albuquerque Center
Thu 04:06:45 PM 36.0700 -106.8933 75° East 501 577 39,000  Level Albuquerque Center
Thu 04:07:47 PM 36.1075 -106.7272 74° East 500 575 39,000  Level Albuquerque Center
Thu 04:08:49 PM 36.1453 -106.5636 74° East 496 571 39,000  Level Albuquerque Center
Thu 04:09:51 PM 36.1817 -106.4019 74° East 495 570 39,000  Level Albuquerque Center
Thu 04:10:52 PM 36.2206 -106.2200 75° East 491 565 39,000  Level Albuquerque Center
Thu 04:11:54 PM 36.2539 -106.0719 74° East 492 566 39,000  Level Albuquerque Center
Thu 04:12:56 PM 36.2881 -105.9081 75° East 491 565 39,000  Level Albuquerque Center
Thu 04:13:58 PM 36.3214 -105.7408 76° East 496 571 39,000  Level Albuquerque Center
Thu 04:15:00 PM 36.3633 -105.5456 75° East 491 565 39,000  Level Albuquerque Center
Thu 04:16:02 PM 36.3936 -105.3944 76° East 488 562 39,000  Level Albuquerque Center
Thu 04:17:04 PM 36.4306 -105.2192 75° East 490 564 39,000  Level Albuquerque Center
Thu 04:18:06 PM 36.4678 -105.0350 76° East 491 565 39,000 48 Level Albuquerque Center
Thu 04:19:08 PM 36.5025 -104.8700 75° East 490 564 39,100  Climbing Albuquerque Center
Thu 04:20:10 PM 36.5364 -104.7022 76° East 493 567 39,000 -48 Descending Albuquerque Center
Thu 04:21:12 PM 36.5700 -104.5358 76° East 492 566 39,000  Level Albuquerque Center
Thu 04:22:14 PM 36.6036 -104.3694 76° East 491 565 39,000  Level Albuquerque Center
Thu 04:23:16 PM 36.6372 -104.2053 76° East 487 560 39,000  Level Albuquerque Center
Thu 04:24:18 PM 36.6744 -104.0167 76° East 488 562 39,000  Level Albuquerque Center
Thu 04:25:20 PM 36.7050 -103.8578 76° East 492 566 39,000  Level Albuquerque Center
Thu 04:26:22 PM 36.7408 -103.6728 76° East 493 567 39,000  Level Albuquerque Center
Thu 04:27:24 PM 36.7708 -103.5144 77° East 494 568 39,000  Level Albuquerque Center
Thu 04:28:26 PM 36.8019 -103.3550 76° East 495 570 39,000  Level Albuquerque Center
Thu 04:29:28 PM 36.8367 -103.1678 77° East 496 571 39,000  Level Albuquerque Center
Thu 04:30:29 PM 36.8678 -103.0086 76° East 496 571 39,000  Level Albuquerque Center
Thu 04:31:31 PM 36.9022 -102.8219 77° East 494 568 39,000  Level Albuquerque Center
Thu 04:32:33 PM 36.9319 -102.6600 77° East 499 574 39,000  Level Albuquerque Center
Thu 04:33:36 PM 36.9633 -102.4867 77° East 495 570 39,000  Level Albuquerque Center
Thu 04:34:37 PM 36.9969 -102.3011 77° East 491 565 39,000  Level Albuquerque Center
Thu 04:35:39 PM 37.0247 -102.1419 78° East 490 564 39,000  Level Albuquerque Center
Thu 04:37:12 PM 37.0547 -101.8744 82° East 487 560 39,000  Level Kansas City Center
Thu 04:37:43 PM 37.0575 -101.7944 87° East 488 562 39,000  Level Albuquerque Center
Thu 04:38:45 PM 37.0650 -101.6047 87° East 491 565 39,000  Level Albuquerque Center
Thu 04:40:18 PM 37.0750 -101.3622 87° East 489 563 39,000  Level Kansas City Center
Thu 04:41:20 PM 37.0828 -101.1736 87° East 489 563 39,000  Level Kansas City Center
Thu 04:42:22 PM 37.0892 -101.0128 87° East 487 560 39,000  Level Kansas City Center
Thu 04:43:24 PM 37.0950 -100.8219 88° East 492 566 39,000  Level Kansas City Center
Thu 04:44:26 PM 37.1017 -100.6586 87° East 494 568 39,000  Level Kansas City Center
Thu 04:45:28 PM 37.1083 -100.4681 87° East 494 568 39,000  Level Kansas City Center
Thu 04:46:30 PM 37.1136 -100.3044 88° East 494 568 39,000  Level Kansas City Center
Thu 04:47:32 PM 37.1194 -100.1136 88° East 493 567 39,000  Level Kansas City Center
Thu 04:48:34 PM 37.1233 -99.9506 88° East 492 566 39,000 -145 Level Kansas City Center
Thu 04:49:36 PM 37.1289 -99.7592 88° East 492 566 38,700 -871 Descending Kansas City Center
Thu 04:50:38 PM 37.1333 -99.5953 88° East 493 567 37,200 -1,500 Descending Kansas City Center
Thu 04:51:40 PM 37.1369 -99.4100 89° East 489 563 35,600 -1,548 Descending Kansas City Center
Thu 04:52:42 PM 37.1414 -99.2419 88° East 484 557 34,000 -1,500 Descending Kansas City Center
Thu 04:53:44 PM 37.1450 -99.0803 88° East 481 554 32,500 -1,452 Descending Kansas City Center
Thu 04:54:46 PM 37.1472 -98.9053 89° East 494 568 31,000 -1,548 Descending Kansas City Center
Thu 04:55:48 PM 37.1519 -98.6889 88° East 512 589 29,300 -1,597 Descending Kansas City Center
Thu 04:56:50 PM 37.1531 -98.5094 90° East 517 595 27,700 -1,500 Descending Kansas City Center
Thu 04:57:52 PM 37.1553 -98.3356 89° East 510 587 26,200 -1,452 Descending Kansas City Center
Thu 04:58:54 PM 37.1694 -98.1706 84° East 499 574 24,700 -1,851 Descending Kansas City Center
Thu 04:59:26 PM 37.2142 -98.0922 54° Northeast 448 516 23,300 -2,516 Descending Kansas City Center
Thu 04:59:56 PM 37.2419 -98.0472 52° Northeast 448 516 22,100 -3,100 Descending Kansas City Center
Thu 05:00:26 PM 37.2858 -97.9819 50° Northeast 397 457 20,200 -2,952 Descending Kansas City Center
Thu 05:00:59 PM 37.3128 -97.9403 51° Northeast 412 474 19,000 -2,951 Descending Kansas City Center
Thu 05:01:27 PM 37.3542 -97.8797 49° Northeast 371 427 17,200 -3,484 Descending Kansas City Center
Thu 05:02:01 PM 37.3908 -97.8236 51° Northeast 374 430 15,400 -3,148 Descending Kansas City Center
Thu 05:02:28 PM 37.4242 -97.7772 48° Northeast 352 405 14,000 -2,903 Descending Kansas City Center
Thu 05:03:03 PM 37.4675 -97.7619 16° North 340 391 12,400 -3,049 Descending Kansas City Center
Thu 05:03:29 PM 37.5133 -97.7639 358° North 315 362 10,900 -2,323 Descending Kansas City Center
Thu 05:04:05 PM 37.5550 -97.7558 North 316 364 10,000 -900 Descending Kansas City Center
Thu 05:04:29 PM 37.5778 -97.7147 55° Northeast 285 328 10,000 -581 Level Kansas City Center
Thu 05:05:07 PM 37.5678 -97.6744 107° East 259 298 9,400 -1,672 Descending Kansas City Center
Thu 05:05:30 PM 37.5386 -97.6547 152° Southeast 221 254 8,300 -2,226 Descending Kansas City Center
Thu 05:06:09 PM 37.5125 -97.6322 146° Southeast 227 261 7,100 -2,164 Descending Kansas City Center
Thu 05:06:31 PM 37.4864 -97.6150 152° Southeast 214 246 6,100 -1,645 Descending Kansas City Center
Thu 05:07:11 PM 37.4628 -97.5972 149° Southeast 212 244 5,400 -1,475 Descending Kansas City Center
Thu 05:07:32 PM 37.4631 -97.5686 89° East 167 192 4,600 -2,032 Descending Kansas City Center
Thu 05:08:13 PM 37.4781 -97.5306 64° Northeast 184 212 3,300 -1,574 Descending Kansas City Center
Thu 05:08:33 PM 37.4869 -97.5122 59° Northeast 167 192 3,000 -290 Descending Kansas City Center
Thu 05:09:15 PM 37.5058 -97.4875 46° Northeast 169 194 3,000  Level Kansas City Center
Thu 05:09:33 PM 37.5219 -97.4831 12° North 150 173 3,000  Level Kansas City Center
Thu 05:10:17 PM 37.5450 -97.4694 25° Northeast 157 181 3,000 -98 Level Kansas City Center
Thu 05:10:34 PM 37.5600 -97.4639 16° North 151 174 2,900 -581 Descending Kansas City Center
Thu 05:11:19 PM 37.5856 -97.4514 21° North 155 178 2,400 -689 Descending Kansas City Center
Thu 05:11:35 PM 37.5983 -97.4475 14° North 146 168 2,200 -677 Descending Kansas City Center
Thu 05:12:21 PM 37.6211 -97.4347 24° Northeast 148 170 1,700 -689 Descending Kansas City Center
Thu 05:12:36 PM 37.6344 -97.4314 11° North 136 157 1,500 -800 Descending Kansas City Center
Thu 05:14:00 PM 37.6333 -97.4167 67° East  Level FlightAware Approximate

Login

Don't have an account? Register now (free) for customized features, flight alerts, and more!